EZY42TB EGGD-LDPL
Flight info
| Callsign | EZY42TB |
|---|---|
| Flight time | 2h 9m |
| Altitude | 35000 |
| Route | YORQI L607 KONAN DCT KOK DCT RITAX DCT KRH DCT KUNOD DCT GEDSO DCT VEKEN DCT GIRDA |
| Aircraft | A320/M-SDE3FGHIRWY/LB1 |
Departure
| Time | 2026-05-07 16:20 |
|---|---|
| Airport | Bristol Airport (EGGD) |
Arrival
| Time | 2026-05-07 18:29 |
|---|---|
| Airport | Pula Airport (LDPL) |
| Time | Latitude | Longitude | Altitude | Speed | Heading |
|---|---|---|---|---|---|
| 2026-05-07 15:56 | 51.38558 | -2.71018 | 626 ft | 0 kts | 357° |
| 2026-05-07 16:12 | 51.38545 | -2.71017 | 628 ft | 2 kts | 357° |
| 2026-05-07 16:12 | 51.38528 | -2.71016 | 620 ft | 2 kts | 357° |
| 2026-05-07 16:13 | 51.38510 | -2.71014 | 625 ft | 2 kts | 357° |
| 2026-05-07 16:13 | 51.38493 | -2.71013 | 624 ft | 2 kts | 357° |
| 2026-05-07 16:13 | 51.38476 | -2.71012 | 626 ft | 2 kts | 328° |
| 2026-05-07 16:13 | 51.38466 | -2.70992 | 623 ft | 1 kts | 258° |
| 2026-05-07 16:14 | 51.38466 | -2.70991 | 623 ft | 0 kts | 255° |
| 2026-05-07 16:14 | 51.38465 | -2.70995 | 622 ft | 2 kts | 257° |
| 2026-05-07 16:15 | 51.38462 | -2.71034 | 619 ft | 4 kts | 264° |
| 2026-05-07 16:15 | 51.38456 | -2.71144 | 613 ft | 20 kts | 267° |
| 2026-05-07 16:15 | 51.38448 | -2.71379 | 613 ft | 22 kts | 267° |
| 2026-05-07 16:15 | 51.38438 | -2.71622 | 626 ft | 22 kts | 265° |
| 2026-05-07 16:16 | 51.38430 | -2.71868 | 614 ft | 22 kts | 268° |
| 2026-05-07 16:16 | 51.38427 | -2.72119 | 624 ft | 23 kts | 267° |
| 2026-05-07 16:16 | 51.38417 | -2.72372 | 615 ft | 23 kts | 267° |
| 2026-05-07 16:16 | 51.38408 | -2.72631 | 625 ft | 23 kts | 266° |
| 2026-05-07 16:17 | 51.38400 | -2.72895 | 615 ft | 24 kts | 266° |
| 2026-05-07 16:17 | 51.38388 | -2.73146 | 616 ft | 18 kts | 266° |
| 2026-05-07 16:17 | 51.38345 | -2.73320 | 627 ft | 18 kts | 214° |
| 2026-05-07 16:17 | 51.38236 | -2.73316 | 627 ft | 10 kts | 149° |
| 2026-05-07 16:18 | 51.38215 | -2.73259 | 620 ft | 5 kts | 93° |
| 2026-05-07 16:18 | 51.38215 | -2.73253 | 622 ft | 0 kts | 90° |
| 2026-05-07 16:19 | 51.38215 | -2.73251 | 622 ft | 1 kts | 90° |
| 2026-05-07 16:19 | 51.38227 | -2.72986 | 613 ft | 62 kts | 87° |
| 2026-05-07 16:19 | 51.38268 | -2.71894 | 626 ft | 131 kts | 86° |
| 2026-05-07 16:19 | 51.38333 | -2.70253 | 1010 ft | 141 kts | 87° |
| 2026-05-07 16:20 | 51.38406 | -2.68715 | 1608 ft | 143 kts | 91° |
| 2026-05-07 16:20 | 51.38463 | -2.67057 | 2023 ft | 155 kts | 93° |
| 2026-05-07 16:20 | 51.38486 | -2.65293 | 2615 ft | 162 kts | 93° |
| 2026-05-07 16:20 | 51.38463 | -2.63453 | 3325 ft | 164 kts | 95° |
| 2026-05-07 16:21 | 51.38501 | -2.61681 | 4142 ft | 161 kts | 89° |
| 2026-05-07 16:21 | 51.38575 | -2.59805 | 4613 ft | 179 kts | 90° |
| 2026-05-07 16:21 | 51.38668 | -2.57644 | 4900 ft | 205 kts | 86° |
| 2026-05-07 16:21 | 51.39233 | -2.55444 | 5072 ft | 234 kts | 52° |
| 2026-05-07 16:22 | 51.40585 | -2.53777 | 5372 ft | 259 kts | 30° |
| 2026-05-07 16:22 | 51.42224 | -2.52312 | 5826 ft | 277 kts | 30° |
| 2026-05-07 16:22 | 51.43923 | -2.50800 | 6604 ft | 281 kts | 30° |
| 2026-05-07 16:22 | 51.45630 | -2.49242 | 7419 ft | 284 kts | 31° |
| 2026-05-07 16:23 | 51.47340 | -2.47582 | 8166 ft | 290 kts | 32° |
| 2026-05-07 16:23 | 51.49061 | -2.45859 | 8959 ft | 293 kts | 32° |
| 2026-05-07 16:23 | 51.50660 | -2.43829 | 9723 ft | 297 kts | 51° |
| 2026-05-07 16:23 | 51.51658 | -2.40946 | 10390 ft | 298 kts | 76° |
| 2026-05-07 16:24 | 51.51858 | -2.37662 | 11039 ft | 300 kts | 96° |
| 2026-05-07 16:24 | 51.51649 | -2.34194 | 11223 ft | 323 kts | 98° |
| 2026-05-07 16:24 | 51.51390 | -2.30518 | 11371 ft | 346 kts | 98° |
| 2026-05-07 16:24 | 51.51101 | -2.26563 | 11597 ft | 364 kts | 98° |
| 2026-05-07 16:25 | 51.50804 | -2.22488 | 12147 ft | 371 kts | 98° |
| 2026-05-07 16:25 | 51.50510 | -2.18350 | 12785 ft | 375 kts | 98° |
| 2026-05-07 16:25 | 51.50218 | -2.14161 | 13414 ft | 379 kts | 98° |
| 2026-05-07 16:25 | 51.49920 | -2.09882 | 14031 ft | 383 kts | 98° |
| 2026-05-07 16:26 | 51.49624 | -2.05653 | 14581 ft | 387 kts | 98° |
| 2026-05-07 16:26 | 51.49323 | -2.01347 | 15144 ft | 391 kts | 98° |
| 2026-05-07 16:26 | 51.49019 | -1.96994 | 15704 ft | 394 kts | 98° |
| 2026-05-07 16:26 | 51.48710 | -1.92589 | 16252 ft | 398 kts | 98° |
| 2026-05-07 16:27 | 51.48397 | -1.88162 | 16814 ft | 401 kts | 98° |
| 2026-05-07 16:27 | 51.48076 | -1.83686 | 17356 ft | 405 kts | 98° |
| 2026-05-07 16:27 | 51.47746 | -1.79188 | 17894 ft | 409 kts | 98° |
| 2026-05-07 16:27 | 51.47405 | -1.74633 | 18420 ft | 413 kts | 98° |
| 2026-05-07 16:28 | 51.47062 | -1.70041 | 18889 ft | 416 kts | 98° |
| 2026-05-07 16:28 | 51.46590 | -1.65447 | 19356 ft | 418 kts | 104° |
| 2026-05-07 16:28 | 51.45967 | -1.60880 | 19811 ft | 421 kts | 104° |
| 2026-05-07 16:28 | 51.45340 | -1.56289 | 20271 ft | 424 kts | 104° |
| 2026-05-07 16:29 | 51.44705 | -1.51654 | 20715 ft | 426 kts | 104° |
| 2026-05-07 16:29 | 51.44069 | -1.47007 | 21151 ft | 429 kts | 104° |
| 2026-05-07 16:29 | 51.43427 | -1.42317 | 21569 ft | 432 kts | 104° |
| 2026-05-07 16:29 | 51.42786 | -1.37648 | 21972 ft | 435 kts | 104° |
| 2026-05-07 16:30 | 51.42133 | -1.32903 | 22385 ft | 438 kts | 104° |
| 2026-05-07 16:30 | 51.41475 | -1.28127 | 22768 ft | 440 kts | 104° |
| 2026-05-07 16:30 | 51.40808 | -1.23327 | 23155 ft | 443 kts | 104° |
| 2026-05-07 16:30 | 51.40132 | -1.18495 | 23517 ft | 446 kts | 104° |
| 2026-05-07 16:31 | 51.39572 | -1.13596 | 23836 ft | 449 kts | 97° |
| 2026-05-07 16:31 | 51.39314 | -1.08607 | 24145 ft | 452 kts | 96° |
| 2026-05-07 16:31 | 51.39063 | -1.03586 | 24450 ft | 454 kts | 96° |
| 2026-05-07 16:31 | 51.38806 | -0.98524 | 24749 ft | 456 kts | 96° |
| 2026-05-07 16:32 | 51.38543 | -0.93460 | 25047 ft | 458 kts | 96° |
| 2026-05-07 16:32 | 51.38277 | -0.88378 | 25327 ft | 460 kts | 96° |
| 2026-05-07 16:32 | 51.38006 | -0.83269 | 25607 ft | 462 kts | 96° |
| 2026-05-07 16:32 | 51.37731 | -0.78136 | 25884 ft | 464 kts | 96° |
| 2026-05-07 16:33 | 51.37452 | -0.72974 | 26157 ft | 466 kts | 96° |
| 2026-05-07 16:33 | 51.37172 | -0.67803 | 26420 ft | 468 kts | 96° |
| 2026-05-07 16:33 | 51.36892 | -0.62612 | 26672 ft | 469 kts | 96° |
| 2026-05-07 16:33 | 51.36608 | -0.57394 | 26918 ft | 471 kts | 96° |
| 2026-05-07 16:34 | 51.36320 | -0.52166 | 27163 ft | 473 kts | 96° |
| 2026-05-07 16:34 | 51.36029 | -0.46918 | 27387 ft | 474 kts | 96° |
| 2026-05-07 16:34 | 51.35734 | -0.41661 | 27612 ft | 476 kts | 96° |
| 2026-05-07 16:34 | 51.35435 | -0.36374 | 27834 ft | 477 kts | 96° |
| 2026-05-07 16:35 | 51.35134 | -0.31079 | 28082 ft | 478 kts | 96° |
| 2026-05-07 16:35 | 51.34829 | -0.25795 | 28390 ft | 477 kts | 96° |
| 2026-05-07 16:35 | 51.34519 | -0.20520 | 28700 ft | 476 kts | 96° |
| 2026-05-07 16:35 | 51.34208 | -0.15235 | 29002 ft | 476 kts | 96° |
| 2026-05-07 16:36 | 51.33898 | -0.09972 | 29300 ft | 476 kts | 96° |
| 2026-05-07 16:36 | 51.33588 | -0.04710 | 29614 ft | 475 kts | 97° |
| 2026-05-07 16:36 | 51.33275 | 0.00538 | 29955 ft | 475 kts | 96° |
| 2026-05-07 16:36 | 51.32936 | 0.05802 | 30217 ft | 475 kts | 98° |
| 2026-05-07 16:37 | 51.32514 | 0.11024 | 30339 ft | 474 kts | 99° |
| 2026-05-07 16:37 | 51.32020 | 0.16242 | 30569 ft | 474 kts | 100° |
| 2026-05-07 16:37 | 51.31488 | 0.21428 | 30806 ft | 473 kts | 101° |
| 2026-05-07 16:37 | 51.30949 | 0.26608 | 31051 ft | 473 kts | 101° |
| 2026-05-07 16:38 | 51.30415 | 0.31796 | 31294 ft | 472 kts | 101° |
| 2026-05-07 16:38 | 51.29898 | 0.36981 | 31540 ft | 472 kts | 100° |
| 2026-05-07 16:38 | 51.29397 | 0.42164 | 31795 ft | 471 kts | 100° |
| 2026-05-07 16:38 | 51.28906 | 0.47334 | 32048 ft | 471 kts | 100° |
| 2026-05-07 16:39 | 51.28416 | 0.52514 | 32301 ft | 471 kts | 100° |
| 2026-05-07 16:39 | 51.27922 | 0.57685 | 32578 ft | 470 kts | 100° |
| 2026-05-07 16:39 | 51.27421 | 0.62844 | 32851 ft | 470 kts | 100° |
| 2026-05-07 16:39 | 51.26911 | 0.67989 | 33136 ft | 469 kts | 101° |
| 2026-05-07 16:40 | 51.26404 | 0.73075 | 33414 ft | 469 kts | 101° |
| 2026-05-07 16:40 | 51.25891 | 0.78213 | 33695 ft | 469 kts | 101° |
| 2026-05-07 16:40 | 51.25376 | 0.83353 | 33965 ft | 468 kts | 101° |
| 2026-05-07 16:40 | 51.24859 | 0.88490 | 34208 ft | 468 kts | 101° |
| 2026-05-07 16:41 | 51.24342 | 0.93616 | 34440 ft | 467 kts | 101° |
| 2026-05-07 16:41 | 51.23824 | 0.98737 | 34691 ft | 467 kts | 101° |
| 2026-05-07 16:41 | 51.23308 | 1.03847 | 34901 ft | 466 kts | 101° |
| 2026-05-07 16:41 | 51.22786 | 1.08955 | 35040 ft | 467 kts | 101° |
| 2026-05-07 16:42 | 51.22258 | 1.14077 | 35081 ft | 469 kts | 101° |
| 2026-05-07 16:42 | 51.21194 | 1.24348 | 35078 ft | 470 kts | 101° |
| 2026-05-07 16:43 | 51.20114 | 1.34630 | 35080 ft | 470 kts | 101° |
| 2026-05-07 16:43 | 51.19037 | 1.44913 | 35078 ft | 470 kts | 101° |
| 2026-05-07 16:44 | 51.17949 | 1.55180 | 35079 ft | 470 kts | 101° |
| 2026-05-07 16:44 | 51.16851 | 1.65441 | 35078 ft | 469 kts | 101° |
| 2026-05-07 16:45 | 51.15738 | 1.75688 | 35077 ft | 470 kts | 101° |
| 2026-05-07 16:45 | 51.14635 | 1.85790 | 35077 ft | 470 kts | 101° |
| 2026-05-07 16:46 | 51.13509 | 1.96028 | 35083 ft | 469 kts | 101° |
| 2026-05-07 16:46 | 51.12735 | 2.06343 | 35086 ft | 470 kts | 96° |
| 2026-05-07 16:47 | 51.12189 | 2.16696 | 35084 ft | 469 kts | 96° |
| 2026-05-07 16:47 | 51.11633 | 2.27054 | 35078 ft | 469 kts | 96° |
| 2026-05-07 16:48 | 51.11058 | 2.37406 | 35073 ft | 469 kts | 96° |
| 2026-05-07 16:48 | 51.10476 | 2.47752 | 35077 ft | 469 kts | 96° |
| 2026-05-07 16:49 | 51.09986 | 2.56339 | 35080 ft | 469 kts | 96° |
| 2026-05-07 16:49 | 51.08854 | 2.66522 | 35079 ft | 466 kts | 110° |
| 2026-05-07 16:50 | 51.06216 | 2.75880 | 35075 ft | 464 kts | 118° |
| 2026-05-07 16:50 | 51.03409 | 2.85101 | 35080 ft | 464 kts | 117° |
| 2026-05-07 16:51 | 51.00610 | 2.94345 | 35082 ft | 464 kts | 117° |
| 2026-05-07 16:51 | 50.97799 | 3.03562 | 35086 ft | 464 kts | 117° |
| 2026-05-07 16:52 | 50.94962 | 3.12743 | 35084 ft | 464 kts | 118° |
| 2026-05-07 16:52 | 50.92121 | 3.21924 | 35079 ft | 464 kts | 118° |
| 2026-05-07 16:53 | 50.89277 | 3.31109 | 35072 ft | 464 kts | 118° |
| 2026-05-07 16:53 | 50.86430 | 3.40282 | 35076 ft | 464 kts | 118° |
| 2026-05-07 16:54 | 50.83573 | 3.49436 | 35081 ft | 464 kts | 118° |
| 2026-05-07 16:54 | 50.80704 | 3.58603 | 35075 ft | 465 kts | 118° |
| 2026-05-07 16:55 | 50.77838 | 3.67707 | 35074 ft | 466 kts | 118° |
| 2026-05-07 16:55 | 50.74944 | 3.76867 | 35073 ft | 466 kts | 118° |
| 2026-05-07 16:56 | 50.72046 | 3.86028 | 35078 ft | 466 kts | 118° |
| 2026-05-07 16:56 | 50.67666 | 3.99788 | 35085 ft | 466 kts | 118° |
| 2026-05-07 16:57 | 50.64769 | 4.08853 | 35085 ft | 466 kts | 118° |
| 2026-05-07 16:57 | 50.61835 | 4.17987 | 35087 ft | 466 kts | 118° |
| 2026-05-07 16:58 | 50.58922 | 4.27030 | 35085 ft | 465 kts | 118° |
| 2026-05-07 16:58 | 50.55992 | 4.36101 | 35072 ft | 465 kts | 118° |
| 2026-05-07 16:59 | 50.53048 | 4.45162 | 35074 ft | 466 kts | 119° |
| 2026-05-07 16:59 | 50.50106 | 4.54176 | 35072 ft | 466 kts | 119° |
| 2026-05-07 17:00 | 50.47149 | 4.63238 | 35072 ft | 466 kts | 119° |
| 2026-05-07 17:00 | 50.44180 | 4.72292 | 35063 ft | 466 kts | 119° |
| 2026-05-07 17:01 | 50.41205 | 4.81331 | 35064 ft | 466 kts | 119° |
| 2026-05-07 17:01 | 50.38227 | 4.90346 | 35067 ft | 466 kts | 119° |
| 2026-05-07 17:02 | 50.35236 | 4.99348 | 35066 ft | 466 kts | 119° |
| 2026-05-07 17:02 | 50.32250 | 5.08337 | 35063 ft | 466 kts | 119° |
| 2026-05-07 17:03 | 50.29252 | 5.17323 | 35054 ft | 466 kts | 119° |
| 2026-05-07 17:03 | 50.26239 | 5.26299 | 35056 ft | 466 kts | 119° |
| 2026-05-07 17:04 | 50.23238 | 5.35216 | 35058 ft | 467 kts | 119° |
| 2026-05-07 17:04 | 50.20216 | 5.44187 | 35054 ft | 467 kts | 119° |
| 2026-05-07 17:05 | 50.17185 | 5.53139 | 35055 ft | 467 kts | 119° |
| 2026-05-07 17:05 | 50.14143 | 5.62075 | 35062 ft | 466 kts | 120° |
| 2026-05-07 17:06 | 50.11095 | 5.70996 | 35065 ft | 466 kts | 120° |
| 2026-05-07 17:06 | 50.08042 | 5.79918 | 35065 ft | 466 kts | 120° |
| 2026-05-07 17:07 | 50.04894 | 5.88737 | 35062 ft | 466 kts | 122° |
| 2026-05-07 17:07 | 50.01618 | 5.97427 | 35046 ft | 466 kts | 122° |
| 2026-05-07 17:08 | 49.98319 | 6.06101 | 35045 ft | 466 kts | 122° |
| 2026-05-07 17:08 | 49.95051 | 6.14791 | 35049 ft | 466 kts | 122° |
| 2026-05-07 17:09 | 49.91793 | 6.23503 | 35048 ft | 466 kts | 122° |
| 2026-05-07 17:09 | 49.88526 | 6.32198 | 35054 ft | 467 kts | 122° |
| 2026-05-07 17:10 | 49.85262 | 6.40822 | 35052 ft | 467 kts | 122° |
| 2026-05-07 17:10 | 49.81974 | 6.49488 | 35053 ft | 467 kts | 122° |
| 2026-05-07 17:11 | 49.78679 | 6.58144 | 35044 ft | 467 kts | 122° |
| 2026-05-07 17:11 | 49.75389 | 6.66741 | 35044 ft | 467 kts | 122° |
| 2026-05-07 17:12 | 49.72073 | 6.75392 | 35048 ft | 468 kts | 122° |
| 2026-05-07 17:12 | 49.68752 | 6.84028 | 35052 ft | 468 kts | 122° |
| 2026-05-07 17:13 | 49.65425 | 6.92665 | 35053 ft | 468 kts | 122° |
| 2026-05-07 17:13 | 49.62086 | 7.01293 | 35056 ft | 468 kts | 122° |
| 2026-05-07 17:14 | 49.58738 | 7.09910 | 35068 ft | 468 kts | 122° |
| 2026-05-07 17:14 | 49.55387 | 7.18507 | 35065 ft | 468 kts | 122° |
| 2026-05-07 17:15 | 49.52023 | 7.27112 | 35064 ft | 469 kts | 122° |
| 2026-05-07 17:15 | 49.48644 | 7.35703 | 35053 ft | 470 kts | 122° |
| 2026-05-07 17:16 | 49.45269 | 7.44276 | 35056 ft | 470 kts | 122° |
| 2026-05-07 17:16 | 49.41879 | 7.52869 | 35044 ft | 470 kts | 122° |
| 2026-05-07 17:17 | 49.38475 | 7.61447 | 35053 ft | 470 kts | 122° |
| 2026-05-07 17:17 | 49.35074 | 7.70027 | 35049 ft | 471 kts | 122° |
| 2026-05-07 17:18 | 49.31660 | 7.78595 | 35047 ft | 471 kts | 122° |
| 2026-05-07 17:18 | 49.28235 | 7.87151 | 35046 ft | 471 kts | 122° |
| 2026-05-07 17:19 | 49.24803 | 7.95691 | 35043 ft | 471 kts | 122° |
| 2026-05-07 17:19 | 49.21355 | 8.04243 | 35040 ft | 472 kts | 123° |
| 2026-05-07 17:20 | 49.17909 | 8.12775 | 35046 ft | 472 kts | 123° |
| 2026-05-07 17:20 | 49.14456 | 8.21317 | 35046 ft | 473 kts | 123° |
| 2026-05-07 17:21 | 49.10994 | 8.29856 | 35050 ft | 473 kts | 123° |
| 2026-05-07 17:21 | 49.07526 | 8.38362 | 35051 ft | 473 kts | 123° |
| 2026-05-07 17:22 | 49.04044 | 8.46862 | 35051 ft | 472 kts | 123° |
| 2026-05-07 17:22 | 49.00577 | 8.55296 | 35044 ft | 472 kts | 123° |
| 2026-05-07 17:23 | 48.96453 | 8.63028 | 35035 ft | 470 kts | 135° |
| 2026-05-07 17:23 | 48.91955 | 8.70244 | 35033 ft | 470 kts | 135° |
| 2026-05-07 17:24 | 48.87444 | 8.77465 | 35036 ft | 470 kts | 135° |
| 2026-05-07 17:24 | 48.82947 | 8.84668 | 35033 ft | 470 kts | 135° |
| 2026-05-07 17:25 | 48.78437 | 8.91858 | 35038 ft | 470 kts | 135° |
| 2026-05-07 17:25 | 48.73924 | 8.99040 | 35040 ft | 471 kts | 135° |
| 2026-05-07 17:26 | 48.69393 | 9.06220 | 35031 ft | 471 kts | 136° |
| 2026-05-07 17:26 | 48.64851 | 9.13399 | 35036 ft | 472 kts | 136° |
| 2026-05-07 17:27 | 48.60340 | 9.20514 | 35046 ft | 472 kts | 136° |
| 2026-05-07 17:27 | 48.55791 | 9.27669 | 35048 ft | 472 kts | 136° |
| 2026-05-07 17:28 | 48.51242 | 9.34816 | 35034 ft | 472 kts | 136° |
| 2026-05-07 17:28 | 48.46689 | 9.41940 | 35039 ft | 472 kts | 136° |
| 2026-05-07 17:29 | 48.42120 | 9.49054 | 35041 ft | 472 kts | 136° |
| 2026-05-07 17:29 | 48.37553 | 9.56153 | 35035 ft | 472 kts | 136° |
| 2026-05-07 17:30 | 48.33066 | 9.63368 | 35028 ft | 474 kts | 130° |
| 2026-05-07 17:30 | 48.28937 | 9.71086 | 35024 ft | 474 kts | 131° |
| 2026-05-07 17:31 | 48.24789 | 9.78783 | 35027 ft | 474 kts | 131° |
| 2026-05-07 17:31 | 48.20634 | 9.86472 | 35011 ft | 474 kts | 131° |
| 2026-05-07 17:32 | 48.16470 | 9.94155 | 35015 ft | 475 kts | 131° |
| 2026-05-07 17:32 | 48.12997 | 10.00539 | 35017 ft | 475 kts | 131° |
| 2026-05-07 17:33 | 48.08822 | 10.08214 | 35042 ft | 475 kts | 131° |
| 2026-05-07 17:33 | 48.04644 | 10.15884 | 35051 ft | 475 kts | 131° |
| 2026-05-07 17:34 | 48.00453 | 10.23537 | 35053 ft | 476 kts | 131° |
| 2026-05-07 17:34 | 47.96283 | 10.31136 | 35037 ft | 476 kts | 132° |
| 2026-05-07 17:35 | 47.92067 | 10.38797 | 35014 ft | 477 kts | 132° |
| 2026-05-07 17:35 | 47.87877 | 10.46369 | 35018 ft | 477 kts | 132° |
| 2026-05-07 17:36 | 47.83612 | 10.54081 | 35020 ft | 477 kts | 132° |
| 2026-05-07 17:36 | 47.79383 | 10.61699 | 35029 ft | 477 kts | 132° |
| 2026-05-07 17:37 | 47.75143 | 10.69318 | 35032 ft | 477 kts | 132° |
| 2026-05-07 17:37 | 47.70902 | 10.76911 | 35029 ft | 478 kts | 133° |
| 2026-05-07 17:38 | 47.66649 | 10.84501 | 35009 ft | 478 kts | 133° |
| 2026-05-07 17:38 | 47.62414 | 10.92043 | 35015 ft | 479 kts | 133° |
| 2026-05-07 17:39 | 47.58136 | 10.99633 | 35009 ft | 479 kts | 133° |
| 2026-05-07 17:39 | 47.53864 | 11.07207 | 35016 ft | 479 kts | 133° |
| 2026-05-07 17:40 | 47.49579 | 11.14773 | 35018 ft | 480 kts | 133° |
| 2026-05-07 17:40 | 47.45292 | 11.22322 | 35008 ft | 480 kts | 133° |
| 2026-05-07 17:41 | 47.40990 | 11.29875 | 35002 ft | 480 kts | 134° |
| 2026-05-07 17:41 | 47.36686 | 11.37417 | 35006 ft | 481 kts | 134° |
| 2026-05-07 17:42 | 47.32367 | 11.44948 | 35012 ft | 481 kts | 134° |
| 2026-05-07 17:42 | 47.28039 | 11.52482 | 35016 ft | 481 kts | 134° |
| 2026-05-07 17:43 | 47.23706 | 11.60022 | 35008 ft | 481 kts | 134° |
| 2026-05-07 17:43 | 47.19377 | 11.67542 | 34987 ft | 482 kts | 134° |
| 2026-05-07 17:44 | 47.15023 | 11.75057 | 34997 ft | 482 kts | 134° |
| 2026-05-07 17:44 | 47.10666 | 11.82530 | 35009 ft | 483 kts | 134° |
| 2026-05-07 17:45 | 47.06824 | 11.90664 | 35003 ft | 490 kts | 119° |
| 2026-05-07 17:45 | 47.03839 | 11.99674 | 35007 ft | 491 kts | 119° |
| 2026-05-07 17:46 | 47.00841 | 12.08641 | 35008 ft | 491 kts | 119° |
| 2026-05-07 17:46 | 46.97816 | 12.17620 | 35009 ft | 491 kts | 119° |
| 2026-05-07 17:47 | 46.94786 | 12.26593 | 35028 ft | 491 kts | 119° |
| 2026-05-07 17:47 | 46.91764 | 12.35541 | 35004 ft | 492 kts | 120° |
| 2026-05-07 17:48 | 46.88717 | 12.44518 | 35012 ft | 493 kts | 120° |
| 2026-05-07 17:48 | 46.85657 | 12.53488 | 35014 ft | 493 kts | 120° |
| 2026-05-07 17:49 | 46.82587 | 12.62455 | 35009 ft | 494 kts | 120° |
| 2026-05-07 17:49 | 46.79534 | 12.71371 | 34998 ft | 494 kts | 120° |
| 2026-05-07 17:50 | 46.76455 | 12.80330 | 35017 ft | 494 kts | 120° |
| 2026-05-07 17:50 | 46.73362 | 12.89274 | 35015 ft | 493 kts | 120° |
| 2026-05-07 17:51 | 46.70278 | 12.98144 | 35014 ft | 493 kts | 120° |
| 2026-05-07 17:51 | 46.67175 | 13.07071 | 35023 ft | 494 kts | 120° |
| 2026-05-07 17:52 | 46.64072 | 13.15981 | 34872 ft | 492 kts | 121° |
| 2026-05-07 17:52 | 46.62521 | 13.20415 | 34210 ft | 492 kts | 121° |
| 2026-05-07 17:52 | 46.60959 | 13.24862 | 33534 ft | 494 kts | 121° |
| 2026-05-07 17:53 | 46.59410 | 13.29268 | 32876 ft | 496 kts | 121° |
| 2026-05-07 17:53 | 46.57623 | 13.33528 | 32219 ft | 491 kts | 131° |
| 2026-05-07 17:53 | 46.55377 | 13.37222 | 31576 ft | 485 kts | 142° |
| 2026-05-07 17:53 | 46.52755 | 13.40235 | 31027 ft | 477 kts | 153° |
| 2026-05-07 17:54 | 46.49863 | 13.42539 | 30555 ft | 472 kts | 160° |
| 2026-05-07 17:54 | 46.46899 | 13.44626 | 30086 ft | 474 kts | 160° |
| 2026-05-07 17:54 | 46.43962 | 13.46699 | 29548 ft | 474 kts | 160° |
| 2026-05-07 17:54 | 46.40953 | 13.48825 | 28996 ft | 475 kts | 160° |
| 2026-05-07 17:55 | 46.38024 | 13.50891 | 28487 ft | 476 kts | 159° |
| 2026-05-07 17:55 | 46.35032 | 13.52996 | 27937 ft | 479 kts | 160° |
| 2026-05-07 17:55 | 46.32034 | 13.55102 | 27424 ft | 481 kts | 159° |
| 2026-05-07 17:55 | 46.29016 | 13.57221 | 26931 ft | 482 kts | 159° |
| 2026-05-07 17:56 | 46.25997 | 13.59341 | 26444 ft | 482 kts | 159° |
| 2026-05-07 17:56 | 46.22978 | 13.61458 | 25962 ft | 482 kts | 158° |
| 2026-05-07 17:56 | 46.19960 | 13.63571 | 25486 ft | 479 kts | 158° |
| 2026-05-07 17:56 | 46.16977 | 13.65654 | 25024 ft | 475 kts | 158° |
| 2026-05-07 17:57 | 46.14016 | 13.67716 | 24543 ft | 471 kts | 159° |
| 2026-05-07 17:57 | 46.12074 | 13.69066 | 24248 ft | 468 kts | 158° |
| 2026-05-07 17:57 | 46.08152 | 13.71793 | 23642 ft | 464 kts | 158° |
| 2026-05-07 17:57 | 46.05253 | 13.73809 | 23136 ft | 461 kts | 158° |
| 2026-05-07 17:58 | 46.02378 | 13.75805 | 22620 ft | 458 kts | 158° |
| 2026-05-07 17:58 | 45.99513 | 13.77791 | 22098 ft | 455 kts | 158° |
| 2026-05-07 17:58 | 45.96674 | 13.79756 | 21596 ft | 452 kts | 158° |
| 2026-05-07 17:58 | 45.93883 | 13.81682 | 21104 ft | 449 kts | 158° |
| 2026-05-07 17:59 | 45.91082 | 13.83614 | 20614 ft | 446 kts | 157° |
| 2026-05-07 17:59 | 45.88293 | 13.85538 | 20139 ft | 443 kts | 157° |
| 2026-05-07 17:59 | 45.85528 | 13.87445 | 19668 ft | 440 kts | 157° |
| 2026-05-07 17:59 | 45.82779 | 13.89338 | 19204 ft | 437 kts | 157° |
| 2026-05-07 18:00 | 45.80043 | 13.91218 | 18739 ft | 434 kts | 158° |
| 2026-05-07 18:00 | 45.77326 | 13.93081 | 18284 ft | 431 kts | 157° |
| 2026-05-07 18:00 | 45.74637 | 13.94922 | 17776 ft | 428 kts | 157° |
| 2026-05-07 18:00 | 45.71962 | 13.96756 | 17269 ft | 424 kts | 157° |
| 2026-05-07 18:01 | 45.69306 | 13.98578 | 16760 ft | 422 kts | 158° |
| 2026-05-07 18:01 | 45.66661 | 14.00394 | 16267 ft | 419 kts | 158° |
| 2026-05-07 18:01 | 45.64037 | 14.02186 | 15790 ft | 416 kts | 158° |
| 2026-05-07 18:01 | 45.61437 | 14.03958 | 15312 ft | 413 kts | 158° |
| 2026-05-07 18:02 | 45.56289 | 14.07458 | 14385 ft | 407 kts | 158° |
| 2026-05-07 18:02 | 45.53734 | 14.09187 | 13926 ft | 404 kts | 159° |
| 2026-05-07 18:02 | 45.51235 | 14.10302 | 13460 ft | 395 kts | 173° |
| 2026-05-07 18:03 | 45.48531 | 14.10475 | 12953 ft | 386 kts | 188° |
| 2026-05-07 18:03 | 45.45955 | 14.09651 | 12456 ft | 374 kts | 203° |
| 2026-05-07 18:03 | 45.43683 | 14.07979 | 11985 ft | 363 kts | 217° |
| 2026-05-07 18:03 | 45.41792 | 14.05683 | 11494 ft | 354 kts | 225° |
| 2026-05-07 18:04 | 45.40026 | 14.03312 | 10999 ft | 341 kts | 225° |
| 2026-05-07 18:04 | 45.38329 | 14.01049 | 10544 ft | 329 kts | 225° |
| 2026-05-07 18:04 | 45.36686 | 13.98863 | 10085 ft | 319 kts | 225° |
| 2026-05-07 18:04 | 45.35078 | 13.96725 | 9592 ft | 311 kts | 225° |
| 2026-05-07 18:05 | 45.33519 | 13.94657 | 9098 ft | 303 kts | 225° |
| 2026-05-07 18:05 | 45.31990 | 13.92630 | 8596 ft | 297 kts | 224° |
| 2026-05-07 18:05 | 45.30506 | 13.90661 | 8113 ft | 287 kts | 224° |
| 2026-05-07 18:05 | 45.29078 | 13.88767 | 7637 ft | 276 kts | 224° |
| 2026-05-07 18:06 | 45.27694 | 13.86932 | 7167 ft | 267 kts | 224° |
| 2026-05-07 18:06 | 45.26303 | 13.85208 | 6997 ft | 266 kts | 216° |
| 2026-05-07 18:06 | 45.24672 | 13.84043 | 6997 ft | 268 kts | 200° |
| 2026-05-07 18:06 | 45.22842 | 13.83571 | 7001 ft | 271 kts | 184° |
| 2026-05-07 18:07 | 45.20934 | 13.83655 | 7006 ft | 273 kts | 180° |
| 2026-05-07 18:07 | 45.19037 | 13.83767 | 7008 ft | 272 kts | 180° |
| 2026-05-07 18:07 | 45.17143 | 13.83875 | 7013 ft | 273 kts | 180° |
| 2026-05-07 18:07 | 45.15250 | 13.83982 | 7014 ft | 273 kts | 180° |
| 2026-05-07 18:08 | 45.13353 | 13.84086 | 7015 ft | 273 kts | 180° |
| 2026-05-07 18:08 | 45.11454 | 13.84191 | 7014 ft | 274 kts | 180° |
| 2026-05-07 18:08 | 45.09540 | 13.84298 | 7014 ft | 275 kts | 180° |
| 2026-05-07 18:08 | 45.07625 | 13.84404 | 7014 ft | 275 kts | 180° |
| 2026-05-07 18:09 | 45.05712 | 13.84512 | 7012 ft | 275 kts | 180° |
| 2026-05-07 18:09 | 45.03812 | 13.84445 | 7009 ft | 271 kts | 195° |
| 2026-05-07 18:09 | 45.02152 | 13.83290 | 7013 ft | 266 kts | 224° |
| 2026-05-07 18:09 | 45.01108 | 13.81183 | 7012 ft | 263 kts | 251° |
| 2026-05-07 18:10 | 45.00834 | 13.78690 | 7016 ft | 264 kts | 267° |
| 2026-05-07 18:10 | 45.00762 | 13.76084 | 7013 ft | 264 kts | 268° |
| 2026-05-07 18:10 | 45.00694 | 13.73499 | 7012 ft | 264 kts | 267° |
| 2026-05-07 18:10 | 45.00625 | 13.70895 | 7009 ft | 264 kts | 267° |
| 2026-05-07 18:11 | 45.00553 | 13.68297 | 7009 ft | 264 kts | 267° |
| 2026-05-07 18:11 | 45.00504 | 13.66555 | 7009 ft | 264 kts | 267° |
| 2026-05-07 18:11 | 45.00407 | 13.63117 | 7009 ft | 264 kts | 267° |
| 2026-05-07 18:11 | 45.00331 | 13.60515 | 7009 ft | 264 kts | 267° |
| 2026-05-07 18:12 | 45.00253 | 13.57926 | 7009 ft | 264 kts | 267° |
| 2026-05-07 18:12 | 45.00173 | 13.55341 | 7007 ft | 264 kts | 267° |
| 2026-05-07 18:12 | 44.99859 | 13.52805 | 7003 ft | 264 kts | 246° |
| 2026-05-07 18:12 | 44.98751 | 13.50767 | 6989 ft | 266 kts | 219° |
| 2026-05-07 18:13 | 44.97077 | 13.49742 | 6663 ft | 270 kts | 189° |
| 2026-05-07 18:13 | 44.95190 | 13.49747 | 6348 ft | 273 kts | 180° |
| 2026-05-07 18:13 | 44.93295 | 13.49859 | 6013 ft | 272 kts | 180° |
| 2026-05-07 18:13 | 44.91404 | 13.49982 | 5680 ft | 270 kts | 177° |
| 2026-05-07 18:14 | 44.89657 | 13.50798 | 5344 ft | 264 kts | 144° |
| 2026-05-07 18:14 | 44.88607 | 13.52799 | 5023 ft | 252 kts | 106° |
| 2026-05-07 18:14 | 44.88478 | 13.55207 | 4701 ft | 243 kts | 88° |
| 2026-05-07 18:14 | 44.88541 | 13.57565 | 4365 ft | 239 kts | 88° |
| 2026-05-07 18:15 | 44.88605 | 13.59898 | 4059 ft | 237 kts | 88° |
| 2026-05-07 18:15 | 44.88664 | 13.62206 | 4000 ft | 235 kts | 89° |
| 2026-05-07 18:15 | 44.88717 | 13.64488 | 4001 ft | 227 kts | 88° |
| 2026-05-07 18:15 | 44.88761 | 13.66633 | 4001 ft | 211 kts | 89° |
| 2026-05-07 18:16 | 44.88802 | 13.68627 | 3805 ft | 201 kts | 89° |
| 2026-05-07 18:16 | 44.88841 | 13.70631 | 3290 ft | 207 kts | 90° |
| 2026-05-07 18:16 | 44.88881 | 13.72658 | 2794 ft | 206 kts | 90° |
| 2026-05-07 18:16 | 44.88920 | 13.74594 | 2513 ft | 188 kts | 91° |
| 2026-05-07 18:17 | 44.88957 | 13.76321 | 2489 ft | 166 kts | 90° |
| 2026-05-07 18:17 | 44.88988 | 13.77888 | 2516 ft | 155 kts | 91° |
| 2026-05-07 18:17 | 44.89005 | 13.79384 | 2383 ft | 151 kts | 91° |
| 2026-05-07 18:17 | 44.89025 | 13.80854 | 2191 ft | 149 kts | 90° |
| 2026-05-07 18:18 | 44.89058 | 13.82299 | 1943 ft | 147 kts | 90° |
| 2026-05-07 18:18 | 44.89135 | 13.83720 | 1616 ft | 144 kts | 88° |
| 2026-05-07 18:18 | 44.89215 | 13.85114 | 1270 ft | 140 kts | 92° |
| 2026-05-07 18:18 | 44.89234 | 13.86497 | 949 ft | 141 kts | 91° |
| 2026-05-07 18:19 | 44.89257 | 13.87877 | 614 ft | 140 kts | 89° |
| 2026-05-07 18:19 | 44.89290 | 13.89254 | 368 ft | 141 kts | 89° |
| 2026-05-07 18:19 | 44.89311 | 13.90165 | 215 ft | 139 kts | 89° |
| 2026-05-07 18:19 | 44.89337 | 13.91886 | 218 ft | 123 kts | 89° |
| 2026-05-07 18:20 | 44.89358 | 13.92748 | 479 ft | 141 kts | 89° |
| 2026-05-07 18:20 | 44.89402 | 13.94533 | 1470 ft | 144 kts | 90° |
| 2026-05-07 18:20 | 44.89437 | 13.95532 | 1843 ft | 159 kts | 91° |
| 2026-05-07 18:20 | 44.89171 | 13.97167 | 2316 ft | 188 kts | 124° |
| 2026-05-07 18:21 | 44.88218 | 13.98554 | 2519 ft | 212 kts | 151° |
| 2026-05-07 18:21 | 44.86773 | 13.99154 | 2737 ft | 223 kts | 178° |
| 2026-05-07 18:21 | 44.85211 | 13.99070 | 3557 ft | 228 kts | 184° |
| 2026-05-07 18:21 | 44.83607 | 13.98913 | 3902 ft | 231 kts | 186° |
| 2026-05-07 18:22 | 44.82093 | 13.98351 | 3989 ft | 229 kts | 212° |
| 2026-05-07 18:22 | 44.81294 | 13.97372 | 4009 ft | 228 kts | 233° |
| 2026-05-07 18:22 | 44.80381 | 13.94686 | 4012 ft | 229 kts | 257° |
| 2026-05-07 18:22 | 44.80243 | 13.92483 | 4010 ft | 229 kts | 268° |
| 2026-05-07 18:23 | 44.80238 | 13.90241 | 3982 ft | 228 kts | 269° |
| 2026-05-07 18:23 | 44.80250 | 13.88008 | 3808 ft | 229 kts | 269° |
| 2026-05-07 18:23 | 44.80268 | 13.85758 | 3653 ft | 230 kts | 270° |
| 2026-05-07 18:23 | 44.80293 | 13.83507 | 3505 ft | 230 kts | 269° |
| 2026-05-07 18:24 | 44.80322 | 13.81241 | 3351 ft | 231 kts | 270° |
| 2026-05-07 18:24 | 44.80437 | 13.78983 | 3199 ft | 232 kts | 283° |
| 2026-05-07 18:24 | 44.81165 | 13.76969 | 3047 ft | 234 kts | 311° |
| 2026-05-07 18:24 | 44.82498 | 13.75669 | 2892 ft | 235 kts | 341° |
| 2026-05-07 18:25 | 44.84078 | 13.75381 | 2747 ft | 226 kts | 0° |
| 2026-05-07 18:25 | 44.85619 | 13.75379 | 2607 ft | 215 kts | 0° |
| 2026-05-07 18:25 | 44.87072 | 13.75294 | 2507 ft | 203 kts | 350° |
| 2026-05-07 18:25 | 44.88470 | 13.75237 | 2277 ft | 201 kts | 19° |
| 2026-05-07 18:26 | 44.89524 | 13.76315 | 2138 ft | 184 kts | 63° |
| 2026-05-07 18:26 | 44.89650 | 13.77929 | 1979 ft | 157 kts | 105° |
| 2026-05-07 18:26 | 44.89443 | 13.79380 | 1886 ft | 147 kts | 101° |
| 2026-05-07 18:26 | 44.89321 | 13.80792 | 1733 ft | 144 kts | 98° |
| 2026-05-07 18:27 | 44.89283 | 13.82195 | 1477 ft | 142 kts | 94° |
| 2026-05-07 18:27 | 44.89229 | 13.83570 | 1266 ft | 140 kts | 97° |
| 2026-05-07 18:27 | 44.89217 | 13.84931 | 990 ft | 139 kts | 93° |
| 2026-05-07 18:27 | 44.89224 | 13.86302 | 738 ft | 139 kts | 89° |
| 2026-05-07 18:28 | 44.89258 | 13.87665 | 541 ft | 140 kts | 90° |
| 2026-05-07 18:28 | 44.89283 | 13.89036 | 356 ft | 140 kts | 89° |
| 2026-05-07 18:28 | 44.89315 | 13.90401 | 201 ft | 139 kts | 89° |
| 2026-05-07 18:28 | 44.89339 | 13.91596 | 189 ft | 90 kts | 88° |
| 2026-05-07 18:29 | 44.89352 | 13.92241 | 205 ft | 56 kts | 88° |
| 2026-05-07 18:29 | 44.89363 | 13.92704 | 217 ft | 34 kts | 88° |
| 2026-05-07 18:29 | 44.89406 | 13.92863 | 223 ft | 9 kts | 7° |
| 2026-05-07 18:29 | 44.89460 | 13.92868 | 223 ft | 7 kts | 359° |
| 2026-05-07 18:30 | 44.89505 | 13.92865 | 223 ft | 6 kts | 357° |
| 2026-05-07 18:30 | 44.89541 | 13.92862 | 223 ft | 5 kts | 357° |
| 2026-05-07 18:30 | 44.89576 | 13.92838 | 224 ft | 7 kts | 306° |
| 2026-05-07 18:30 | 44.89585 | 13.92714 | 219 ft | 19 kts | 267° |
| 2026-05-07 18:31 | 44.89581 | 13.92539 | 214 ft | 11 kts | 268° |
| 2026-05-07 18:31 | 44.89618 | 13.92455 | 212 ft | 11 kts | 356° |
| 2026-05-07 18:31 | 44.89686 | 13.92451 | 214 ft | 5 kts | 5° |
| 2026-05-07 18:31 | 44.89694 | 13.92468 | 213 ft | 1 kts | 68° |
| 2026-05-07 18:32 | 44.89711 | 13.92507 | 218 ft | 5 kts | 51° |
| 2026-05-07 18:32 | 44.89716 | 13.92515 | 216 ft | 1 kts | 50° |
| 2026-05-07 18:32 | 44.89717 | 13.92516 | 216 ft | 0 kts | 49° |